Time;durP1;ratioP1;P1;durP2;ratioP2;P2;SDS_P1;SDS_P2;PMS_P1;PMS_P2;Temp;Humidity;BMP_temperature;BMP_pressure;BME280_temperature;BME280_humidity;BME280_pressure;Samples;Min_cycle;Max_cycle;Signal;HPM_P1;HPM_P2
2024/01/13 00:04:46;;;;;;;34.35;30.80;;;5.20;83.10;;;;;;12654683;28;20028;-77
2024/01/13 00:10:47;;;;;;;40.13;36.65;;;5.20;83.10;;;;;;12662958;28;20032;-75
2024/01/13 00:16:49;;;;;;;41.28;37.60;;;5.20;82.70;;;;;;12644678;28;20364;-75
2024/01/13 00:22:51;;;;;;;43.08;39.28;;;5.20;82.50;;;;;;12662416;28;20024;-74
2024/01/13 00:28:53;;;;;;;29.40;26.80;;;5.30;82.10;;;;;;12644464;28;20051;-74
2024/01/13 00:34:54;;;;;;;35.80;32.55;;;5.20;82.20;;;;;;12662592;28;20023;-75
2024/01/13 00:40:56;;;;;;;29.67;27.02;;;5.20;82.10;;;;;;12643705;28;20016;-75
2024/01/13 00:46:57;;;;;;;30.45;27.75;;;5.20;81.90;;;;;;12626709;28;20038;-75
2024/01/13 00:53:00;;;;;;;33.55;30.40;;;5.20;81.90;;;;;;12626889;28;20036;-74
2024/01/13 00:59:02;;;;;;;31.95;29.08;;;5.20;81.70;;;;;;12660671;28;20035;-74
2024/01/13 01:05:05;;;;;;;34.42;31.00;;;5.20;81.60;;;;;;12642990;28;20024;-75
2024/01/13 01:11:11;;;;;;;32.40;29.40;;;5.20;81.80;;;;;;12660293;28;20337;-74
2024/01/13 01:17:13;;;;;;;31.92;28.73;;;5.20;81.70;;;;;;12658848;28;20039;-75
2024/01/13 01:23:15;;;;;;;64.05;59.70;;;5.10;81.50;;;;;;12641745;28;20349;-75
2024/01/13 01:29:17;;;;;;;29.17;26.55;;;4.70;81.80;;;;;;12624697;28;20436;-74
2024/01/13 01:35:18;;;;;;;32.33;29.33;;;4.70;82.00;;;;;;12659019;28;20427;-77
2024/01/13 01:41:21;;;;;;;55.60;51.90;;;4.80;81.70;;;;;;12640959;28;20047;-77
2024/01/13 01:47:24;;;;;;;54.85;51.08;;;4.80;81.40;;;;;;12658405;28;20043;-77
2024/01/13 01:53:26;;;;;;;34.80;31.73;;;4.70;81.50;;;;;;12640074;28;20357;-77
2024/01/13 01:59:28;;;;;;;32.75;29.95;;;4.70;81.40;;;;;;12657761;28;20466;-78
2024/01/13 02:05:29;;;;;;;30.95;28.08;;;4.60;81.40;;;;;;12657458;28;20032;-77
2024/01/13 02:11:31;;;;;;;30.90;27.73;;;4.70;81.50;;;;;;12657283;28;20028;-77
2024/01/13 02:17:32;;;;;;;45.03;41.80;;;4.60;81.40;;;;;;12638975;28;20024;-77
2024/01/13 02:23:34;;;;;;;41.65;38.70;;;4.30;81.60;;;;;;12638690;28;20039;-77
2024/01/13 02:29:35;;;;;;;45.17;41.95;;;4.20;81.90;;;;;;12621864;28;20329;-74
2024/01/13 02:35:37;;;;;;;34.78;31.85;;;4.10;81.90;;;;;;12656201;28;20035;-74
2024/01/13 02:41:39;;;;;;;33.83;30.63;;;3.90;82.10;;;;;;12621333;28;20036;-74
2024/01/13 02:47:43;;;;;;;35.40;32.40;;;4.10;82.20;;;;;;12637581;28;20458;-74
2024/01/13 02:53:46;;;;;;;23.45;21.30;;;4.30;81.80;;;;;;12620788;28;20028;-74
2024/01/13 02:59:47;;;;;;;37.55;34.28;;;4.20;81.50;;;;;;12655086;28;20032;-74
2024/01/13 03:05:49;;;;;;;42.15;38.72;;;4.20;81.30;;;;;;12620581;28;20051;-74
2024/01/13 03:11:50;;;;;;;22.27;19.67;;;4.20;81.30;;;;;;12654734;28;20443;-74
2024/01/13 03:17:52;;;;;;;28.08;23.75;;;4.30;81.10;;;;;;12654634;28;20031;-74
2024/01/13 03:23:53;;;;;;;26.90;23.02;;;4.20;81.00;;;;;;12619591;28;20036;-74
2024/01/13 03:29:55;;;;;;;36.75;33.65;;;4.20;81.50;;;;;;12654095;28;20031;-74
2024/01/13 03:35:56;;;;;;;26.05;21.67;;;4.30;82.20;;;;;;12636408;28;20039;-74
2024/01/13 03:41:59;;;;;;;32.95;25.17;;;4.20;82.20;;;;;;12659268;28;20050;-74
2024/01/13 03:48:01;;;;;;;26.90;23.30;;;4.20;82.20;;;;;;12664252;28;20039;-77
2024/01/13 03:54:02;;;;;;;29.83;26.63;;;4.20;81.90;;;;;;12663944;28;20416;-77
2024/01/13 04:00:04;;;;;;;39.45;36.53;;;4.10;81.80;;;;;;12663510;28;20036;-77
2024/01/13 04:06:06;;;;;;;36.53;33.47;;;4.10;82.00;;;;;;12663240;28;20463;-77
2024/01/13 04:12:08;;;;;;;21.20;18.17;;;4.00;81.80;;;;;;12663015;28;20024;-77
2024/01/13 04:18:10;;;;;;;23.38;19.92;;;3.90;81.70;;;;;;12662821;28;20035;-77
2024/01/13 04:24:11;;;;;;;33.03;30.20;;;3.90;81.80;;;;;;12662538;28;20425;-74
2024/01/13 04:30:13;;;;;;;27.88;25.17;;;4.00;82.30;;;;;;12644081;28;20032;-74
2024/01/13 04:36:15;;;;;;;22.48;17.58;;;4.00;82.10;;;;;;12662691;28;20320;-74
2024/01/13 04:42:16;;;;;;;18.88;16.88;;;3.80;81.90;;;;;;12643690;28;20038;-74
2024/01/13 04:48:18;;;;;;;25.42;22.92;;;3.70;81.80;;;;;;12661380;28;20348;-77
2024/01/13 04:54:19;;;;;;;23.50;21.08;;;3.70;81.60;;;;;;12643021;28;20031;-77
2024/01/13 05:00:21;;;;;;;18.38;16.48;;;3.70;81.50;;;;;;12660706;28;20043;-77
2024/01/13 05:06:23;;;;;;;24.05;21.77;;;3.70;81.40;;;;;;12660365;28;20440;-77
2024/01/13 05:12:25;;;;;;;20.65;17.50;;;3.70;81.30;;;;;;12642946;28;20023;-77
2024/01/13 05:18:27;;;;;;;21.27;18.75;;;3.60;81.10;;;;;;12642461;28;20448;-77
2024/01/13 05:24:29;;;;;;;18.65;16.20;;;3.40;81.40;;;;;;12659695;28;20028;-77
2024/01/13 05:30:32;;;;;;;22.20;17.70;;;3.40;81.50;;;;;;12659432;28;20032;-77
2024/01/13 05:36:34;;;;;;;22.23;16.88;;;3.40;81.40;;;;;;12659128;28;20036;-77
2024/01/13 05:42:35;;;;;;;19.77;16.05;;;3.30;81.70;;;;;;12658804;28;20027;-77
2024/01/13 05:48:39;;;;;;;27.45;24.23;;;3.30;81.60;;;;;;12658402;28;20039;-77
2024/01/13 05:54:41;;;;;;;25.48;20.13;;;3.40;81.30;;;;;;12639841;28;20036;-77
2024/01/13 06:00:42;;;;;;;26.42;19.08;;;3.30;81.10;;;;;;12607098;28;20474;-77
2024/01/13 06:06:44;;;;;;;23.23;16.92;;;3.40;81.20;;;;;;12656913;28;20036;-77
2024/01/13 06:12:46;;;;;;;21.55;19.27;;;3.40;81.10;;;;;;12623103;28;20463;-77
2024/01/13 06:18:47;;;;;;;26.55;22.50;;;3.30;80.90;;;;;;12622525;28;20036;-77
2024/01/13 06:24:51;;;;;;;34.83;31.10;;;3.30;81.00;;;;;;12656879;28;20028;-77
2024/01/13 06:31:04;;;;;;;28.05;21.30;;;3.30;81.10;;;;;;12656442;28;20036;-75
2024/01/13 06:37:06;;;;;;;32.63;24.60;;;3.30;81.10;;;;;;12656122;28;20340;-75
2024/01/13 06:43:10;;;;;;;30.08;25.83;;;3.20;81.40;;;;;;12655857;28;20035;-75
2024/01/13 06:49:12;;;;;;;24.25;20.52;;;3.20;81.30;;;;;;12621383;28;20043;-75
2024/01/13 06:55:15;;;;;;;25.75;23.05;;;3.30;81.20;;;;;;12637471;28;20035;-75
2024/01/13 07:01:17;;;;;;;25.63;23.15;;;3.20;81.00;;;;;;12601157;22;20052;-75
2024/01/13 07:14:19;;;;;;;39.67;36.60;;;2.60;81.90;;;;;;12603617;28;20421;-75
2024/01/13 07:20:24;;;;;;;41.00;37.50;;;2.60;82.00;;;;;;12586611;28;20037;-75
2024/01/13 07:26:27;;;;;;;43.58;39.70;;;2.60;82.30;;;;;;12586023;28;20048;-75
2024/01/13 07:32:30;;;;;;;53.55;48.95;;;2.90;82.10;;;;;;12603986;28;20031;-75
2024/01/13 07:38:35;;;;;;;48.60;44.50;;;3.10;82.10;;;;;;12585846;28;20025;-75
2024/01/13 07:44:36;;;;;;;41.08;37.75;;;3.20;81.70;;;;;;12603548;28;20028;-75
2024/01/13 07:50:38;;;;;;;37.45;34.55;;;3.20;81.60;;;;;;12619153;28;20032;-75
2024/01/13 07:56:39;;;;;;;35.88;33.13;;;3.10;81.60;;;;;;12603220;28;20033;-75
2024/01/13 08:02:41;;;;;;;41.53;37.95;;;3.10;81.90;;;;;;12601936;28;20032;-75
2024/01/13 08:08:42;;;;;;;37.90;34.72;;;3.10;81.80;;;;;;12602711;28;20036;-75
2024/01/13 08:14:45;;;;;;;35.53;32.70;;;3.00;82.10;;;;;;12603116;28;20362;-75
2024/01/13 08:20:52;;;;;;;36.22;33.28;;;3.00;82.50;;;;;;12575157;28;20033;-77
2024/01/13 08:26:55;;;;;;;45.50;41.40;;;3.10;82.40;;;;;;12557282;28;20297;-73
2024/01/13 08:32:57;;;;;;;35.45;32.45;;;3.00;82.40;;;;;;12562117;28;20029;-74
2024/01/13 08:38:58;;;;;;;40.00;36.58;;;3.00;82.70;;;;;;12561805;28;20032;-75
2024/01/13 08:45:00;;;;;;;44.40;40.17;;;2.90;82.80;;;;;;12543889;28;20041;-75
2024/01/13 08:51:05;;;;;;;35.08;31.83;;;2.90;83.00;;;;;;12560372;28;20032;-75
2024/01/13 08:57:07;;;;;;;34.55;31.60;;;3.10;83.10;;;;;;12543116;28;20127;-74
2024/01/13 09:03:08;;;;;;;31.80;29.05;;;3.20;83.00;;;;;;12560699;28;20044;-74
2024/01/13 09:09:10;;;;;;;28.35;25.83;;;3.20;83.20;;;;;;12542578;28;20028;-74
2024/01/13 09:15:13;;;;;;;33.03;29.65;;;3.30;83.30;;;;;;12560075;28;20093;-75
2024/01/13 09:21:18;;;;;;;29.55;26.63;;;3.30;83.20;;;;;;12542669;28;20029;-75
2024/01/13 09:27:19;;;;;;;26.08;23.35;;;3.30;83.00;;;;;;12541643;28;20044;-75
2024/01/13 09:33:24;;;;;;;25.10;22.75;;;3.30;83.10;;;;;;12541520;28;20369;-75
2024/01/13 09:39:53;;;;;;;24.73;22.63;;;3.40;83.30;;;;;;12558047;28;20036;-75
2024/01/13 09:45:55;;;;;;;28.13;24.92;;;3.60;83.40;;;;;;12558631;28;20032;-75
2024/01/13 09:51:59;;;;;;;31.55;27.98;;;3.70;83.70;;;;;;12508363;28;20044;-75
2024/01/13 09:58:01;;;;;;;36.65;33.22;;;3.80;83.80;;;;;;12557834;28;20051;-75
2024/01/13 10:04:03;;;;;;;41.65;36.00;;;3.80;83.80;;;;;;12559234;28;20041;-77
2024/01/13 10:10:20;;;;;;;39.50;35.83;;;3.90;84.20;;;;;;12539722;28;20052;-77
2024/01/13 10:16:22;;;;;;;41.33;37.30;;;3.90;84.30;;;;;;12557146;28;20032;-77
2024/01/13 10:22:23;;;;;;;26.30;21.67;;;4.10;84.50;;;;;;12539151;28;20036;-77
2024/01/13 10:28:26;;;;;;;32.53;29.83;;;4.20;84.50;;;;;;12538824;28;20029;-76
2024/01/13 10:34:28;;;;;;;22.27;20.02;;;4.30;84.50;;;;;;12556690;28;20028;-77
2024/01/13 10:40:30;;;;;;;30.13;25.45;;;4.40;84.40;;;;;;12538481;28;20441;-77
2024/01/13 10:46:33;;;;;;;40.03;36.70;;;4.50;84.10;;;;;;12538227;28;20052;-76
2024/01/13 10:53:03;;;;;;;30.67;24.58;;;4.50;83.80;;;;;;12555528;28;20036;-77
2024/01/13 10:59:05;;;;;;;;;;;4.60;83.90;;;;;;12396312;28;20498;-76
2024/01/13 11:05:08;;;;;;;24.67;21.08;;;4.60;83.30;;;;;;12402445;28;19916;-77
2024/01/13 11:11:12;;;;;;;51.42;47.08;;;4.80;83.80;;;;;;12385913;28;20046;-77
2024/01/13 11:17:14;;;;;;;41.67;38.70;;;5.00;83.50;;;;;;12402672;28;20069;-75
2024/01/13 11:23:16;;;;;;;49.92;46.17;;;5.20;83.30;;;;;;12385631;28;20046;-74
2024/01/13 11:29:19;;;;;;;36.83;34.03;;;5.50;82.90;;;;;;12401497;28;20042;-75
2024/01/13 11:35:21;;;;;;;76.40;71.47;;;5.70;82.40;;;;;;12536586;28;20032;-74
2024/01/13 11:41:23;;;;;;;41.17;38.13;;;5.90;82.30;;;;;;12553537;28;20040;-74
2024/01/13 11:47:29;;;;;;;92.95;87.20;;;6.10;82.30;;;;;;12585886;28;20040;-74
2024/01/13 11:53:39;;;;;;;52.17;48.33;;;6.20;81.60;;;;;;12603430;28;20036;-74
2024/01/13 11:59:41;;;;;;;69.25;64.82;;;6.20;81.50;;;;;;12585383;28;20051;-74
2024/01/13 12:05:43;;;;;;;129.88;122.80;;;6.20;81.40;;;;;;12613414;28;20039;-75
2024/01/13 12:11:55;;;;;;;78.45;73.28;;;6.20;81.10;;;;;;12611637;28;20046;-74
2024/01/13 12:17:57;;;;;;;61.72;57.22;;;6.20;80.70;;;;;;12612387;28;20326;-74
2024/01/13 12:24:00;;;;;;;35.40;32.10;;;6.20;80.40;;;;;;12612302;28;20417;-74
2024/01/13 12:30:01;;;;;;;31.63;28.05;;;6.30;80.30;;;;;;12614753;28;20463;-74
2024/01/13 12:36:04;;;;;;;52.50;48.53;;;6.20;80.00;;;;;;12614222;28;20055;-74
2024/01/13 12:42:06;;;;;;;23.92;21.48;;;6.20;79.70;;;;;;12594338;28;20036;-75
2024/01/13 12:48:08;;;;;;;26.38;22.98;;;6.20;79.80;;;;;;12610889;28;20029;-74
2024/01/13 12:54:14;;;;;;;31.40;28.20;;;6.30;79.30;;;;;;12593136;28;20025;-74
2024/01/13 13:00:21;;;;;;;31.13;28.05;;;6.30;78.70;;;;;;12610585;28;20037;-74
2024/01/13 13:06:23;;;;;;;27.45;24.50;;;6.40;78.80;;;;;;12592369;28;20044;-74
2024/01/13 13:12:25;;;;;;;33.83;30.73;;;6.50;78.60;;;;;;12574350;28;20043;-74
2024/01/13 13:18:26;;;;;;;65.30;60.75;;;6.50;77.80;;;;;;12609778;28;20040;-74
2024/01/13 13:24:28;;;;;;;32.00;28.65;;;6.60;77.90;;;;;;12609202;28;20360;-76
2024/01/13 13:30:30;;;;;;;46.08;41.90;;;6.70;78.20;;;;;;12608667;28;20028;-76
2024/01/13 13:36:33;;;;;;;31.63;28.48;;;6.70;78.10;;;;;;12590494;28;20036;-76
2024/01/13 13:42:35;;;;;;;85.00;79.70;;;6.90;77.80;;;;;;12589958;28;20464;-76
2024/01/13 13:48:37;;;;;;;47.67;44.40;;;7.00;77.90;;;;;;12590776;28;20043;-76
2024/01/13 13:54:38;;;;;;;90.47;85.05;;;7.10;77.50;;;;;;12607376;28;20040;-77
2024/01/13 14:00:40;;;;;;;50.53;46.78;;;7.10;77.80;;;;;;12591880;28;20040;-74
2024/01/13 14:06:41;;;;;;;75.63;71.35;;;7.20;77.70;;;;;;12594431;28;20044;-77
2024/01/13 14:12:43;;;;;;;78.28;73.30;;;7.20;77.60;;;;;;12611053;28;20021;-74
2024/01/13 14:18:47;;;;;;;83.72;78.28;;;7.30;77.60;;;;;;12589570;28;20436;-74
2024/01/13 14:24:50;;;;;;;84.97;80.25;;;7.30;77.60;;;;;;12588445;28;20028;-74
2024/01/13 14:30:51;;;;;;;101.65;95.82;;;7.50;77.60;;;;;;12608803;28;20455;-77
2024/01/13 14:36:53;;;;;;;163.45;155.77;;;7.80;76.90;;;;;;12588297;28;20035;-77
2024/01/13 14:42:55;;;;;;;167.93;159.85;;;7.80;77.10;;;;;;12587445;28;20036;-74
2024/01/13 14:48:56;;;;;;;228.90;218.30;;;8.10;77.00;;;;;;12586960;28;20353;-74
2024/01/13 14:54:59;;;;;;;153.88;146.13;;;7.90;77.60;;;;;;12570355;28;20024;-74
2024/01/13 15:01:01;;;;;;;112.22;106.20;;;7.50;78.20;;;;;;12650713;22;20052;-74
2024/01/13 15:07:03;;;;;;;79.35;74.85;;;7.20;78.80;;;;;;12653707;28;20036;-74
2024/01/13 15:13:07;;;;;;;61.60;56.75;;;7.00;79.00;;;;;;12654699;28;20085;-74
2024/01/13 15:19:09;;;;;;;58.47;54.22;;;7.00;79.20;;;;;;12635713;28;20442;-74
2024/01/13 15:25:14;;;;;;;74.35;69.00;;;6.90;79.40;;;;;;12652732;28;20432;-74
2024/01/13 15:31:16;;;;;;;38.40;34.65;;;7.10;79.50;;;;;;12636135;28;20388;-74
2024/01/13 15:37:17;;;;;;;39.05;35.38;;;6.80;79.80;;;;;;12652624;28;20028;-74
2024/01/13 15:43:21;;;;;;;29.88;20.17;;;6.50;80.30;;;;;;12652947;28;20035;-74
2024/01/13 15:49:25;;;;;;;30.92;22.20;;;6.20;80.60;;;;;;12652175;28;20073;-74
2024/01/13 15:55:35;;;;;;;32.33;26.30;;;6.10;81.10;;;;;;12652383;28;20023;-74
2024/01/13 16:01:37;;;;;;;32.95;27.70;;;5.90;81.40;;;;;;12633800;28;20035;-74
2024/01/13 16:07:39;;;;;;;52.83;48.28;;;5.70;81.50;;;;;;12617221;28;20459;-74
2024/01/13 16:13:56;;;;;;;64.95;60.00;;;5.60;81.70;;;;;;12633815;28;20044;-75
2024/01/13 16:19:58;;;;;;;34.42;31.05;;;5.50;81.90;;;;;;12630107;28;20361;-74
2024/01/13 16:25:59;;;;;;;49.15;44.35;;;5.40;81.90;;;;;;12643629;28;20028;-74
2024/01/13 16:32:02;;;;;;;58.72;49.92;;;5.40;82.00;;;;;;12648708;28;20036;-74
2024/01/13 16:38:04;;;;;;;56.92;52.70;;;5.30;82.10;;;;;;12650964;28;20028;-74
2024/01/13 16:44:05;;;;;;;44.80;41.10;;;5.20;82.20;;;;;;12632021;28;20035;-74
2024/01/13 16:50:07;;;;;;;39.03;35.28;;;5.10;82.20;;;;;;12657554;28;20032;-74
2024/01/13 16:56:08;;;;;;;39.22;35.83;;;5.10;82.30;;;;;;12656874;28;20024;-75
2024/01/13 17:02:11;;;;;;;42.22;38.63;;;4.90;82.30;;;;;;12658413;28;20028;-74
2024/01/13 17:08:13;;;;;;;30.88;28.02;;;4.90;82.50;;;;;;12659546;28;20344;-74
2024/01/13 17:14:16;;;;;;;33.35;28.75;;;4.80;82.50;;;;;;12692441;28;20062;-74
2024/01/13 17:20:22;;;;;;;39.88;34.30;;;4.80;82.50;;;;;;12603826;28;20032;-74
2024/01/13 17:26:26;;;;;;;73.40;68.00;;;4.70;82.70;;;;;;12655246;28;20040;-74
2024/01/13 17:32:39;;;;;;;36.58;33.13;;;4.70;82.80;;;;;;12669539;28;20043;-74
2024/01/13 17:38:40;;;;;;;35.10;31.55;;;4.60;82.80;;;;;;12604913;28;20035;-74
2024/01/13 17:44:42;;;;;;;36.90;33.03;;;4.60;82.80;;;;;;12608390;28;20040;-74
2024/01/13 17:50:45;;;;;;;68.53;61.92;;;4.60;82.70;;;;;;12608260;28;20036;-75
2024/01/13 17:56:47;;;;;;;33.92;30.30;;;4.60;82.60;;;;;;12607865;28;20028;-74
2024/01/13 18:02:48;;;;;;;29.30;26.38;;;4.50;82.60;;;;;;12607175;28;20459;-74
2024/01/13 18:08:53;;;;;;;50.83;46.33;;;4.20;82.80;;;;;;12607343;28;20032;-77
2024/01/13 18:14:55;;;;;;;47.53;43.58;;;4.20;83.10;;;;;;12619065;28;20448;-77
2024/01/13 18:21:29;;;;;;;30.75;27.02;;;4.20;83.10;;;;;;12639106;28;20023;-77
2024/01/13 18:27:30;;;;;;;57.40;52.53;;;4.20;83.00;;;;;;12656758;28;20028;-77
2024/01/13 18:33:32;;;;;;;36.65;33.13;;;4.20;83.00;;;;;;12656430;28;20348;-74
2024/01/13 18:39:37;;;;;;;28.35;25.38;;;4.10;83.00;;;;;;12656242;28;20058;-74
2024/01/13 18:45:38;;;;;;;42.80;38.58;;;4.10;83.10;;;;;;12637889;28;20036;-75
2024/01/13 18:51:40;;;;;;;31.70;27.40;;;4.00;83.00;;;;;;12637522;28;20035;-74
2024/01/13 18:57:42;;;;;;;32.83;29.00;;;3.90;83.00;;;;;;12637125;28;20048;-77
2024/01/13 19:03:43;;;;;;;47.35;43.00;;;3.90;83.00;;;;;;12637192;28;20028;-76
2024/01/13 19:09:46;;;;;;;68.10;62.30;;;3.80;83.10;;;;;;12654846;28;20368;-76
2024/01/13 19:15:48;;;;;;;44.90;40.10;;;3.80;83.10;;;;;;12636577;28;20028;-76
2024/01/13 19:21:53;;;;;;;77.53;61.00;;;3.90;83.00;;;;;;12619884;28;20035;-77
2024/01/13 19:27:57;;;;;;;53.10;46.75;;;3.70;83.40;;;;;;12654363;28;20043;-77
2024/01/13 19:33:59;;;;;;;37.97;31.55;;;3.70;83.40;;;;;;12629811;28;20016;-78
2024/01/13 19:40:02;;;;;;;51.95;46.70;;;3.70;83.20;;;;;;12636337;28;20220;-77
2024/01/13 19:46:04;;;;;;;45.50;40.75;;;3.60;83.10;;;;;;12653889;28;20352;-77
2024/01/13 19:52:07;;;;;;;33.90;29.25;;;3.40;83.30;;;;;;12653782;28;20028;-77
2024/01/13 19:58:09;;;;;;;31.58;26.75;;;3.40;83.40;;;;;;12653567;28;20032;-78
2024/01/13 20:04:11;;;;;;;51.80;46.67;;;3.40;83.40;;;;;;12635741;28;20453;-77
2024/01/13 20:10:12;;;;;;;35.08;28.98;;;3.50;83.30;;;;;;12653326;28;20059;-77
2024/01/13 20:16:14;;;;;;;49.25;38.63;;;3.40;83.50;;;;;;12653223;28;20425;-77
2024/01/13 20:22:16;;;;;;;33.00;29.35;;;3.40;83.50;;;;;;12655307;28;20359;-77
2024/01/13 20:28:18;;;;;;;59.50;53.20;;;3.50;83.50;;;;;;12644619;28;20040;-77
2024/01/13 20:34:23;;;;;;;47.35;38.75;;;3.50;83.40;;;;;;12662309;28;20364;-77
2024/01/13 20:40:28;;;;;;;43.88;38.78;;;3.40;83.50;;;;;;12662040;28;20032;-77
2024/01/13 20:46:30;;;;;;;58.03;52.63;;;3.40;83.50;;;;;;12661744;28;20036;-77
2024/01/13 20:52:32;;;;;;;47.92;43.50;;;3.40;83.40;;;;;;12643662;28;20047;-77
2024/01/13 20:58:34;;;;;;;36.75;32.83;;;3.40;83.30;;;;;;12643037;28;20043;-77
2024/01/13 21:04:36;;;;;;;38.78;34.90;;;3.30;83.30;;;;;;12660923;28;20035;-77
2024/01/13 21:10:38;;;;;;;45.30;40.25;;;3.20;83.20;;;;;;12661213;28;20332;-76
2024/01/13 21:16:41;;;;;;;44.53;39.80;;;3.20;83.30;;;;;;12647319;28;20028;-77
2024/01/13 21:22:44;;;;;;;51.25;39.55;;;3.20;83.50;;;;;;12609618;28;20036;-78
2024/01/13 21:28:45;;;;;;;34.45;30.90;;;3.20;83.40;;;;;;12660402;28;20036;-77
2024/01/13 21:34:47;;;;;;;41.92;37.53;;;3.10;83.50;;;;;;12658321;28;20027;-78
2024/01/13 21:40:49;;;;;;;64.47;56.17;;;3.10;83.30;;;;;;12659266;28;20035;-77
2024/01/13 21:46:52;;;;;;;65.00;56.58;;;3.10;83.20;;;;;;12659804;28;20125;-78
2024/01/13 21:52:54;;;;;;;63.30;55.95;;;3.20;83.40;;;;;;12658708;28;20333;-77
2024/01/13 21:58:56;;;;;;;66.00;57.33;;;3.30;83.20;;;;;;12656561;28;20036;-77
2024/01/13 22:04:59;;;;;;;59.58;53.03;;;3.30;83.10;;;;;;12640659;28;20043;-77
2024/01/13 22:11:01;;;;;;;68.03;59.63;;;3.30;83.10;;;;;;12657598;28;20028;-77
2024/01/13 22:17:04;;;;;;;61.00;53.10;;;3.30;83.00;;;;;;12657374;28;20024;-77
2024/01/13 22:23:05;;;;;;;53.78;47.60;;;3.30;83.10;;;;;;12657154;28;20143;-77
2024/01/13 22:29:07;;;;;;;49.97;44.72;;;3.20;83.40;;;;;;12657647;28;20032;-77
2024/01/13 22:35:10;;;;;;;60.95;54.58;;;3.10;83.20;;;;;;12656616;28;20032;-77
2024/01/13 22:41:13;;;;;;;55.58;46.65;;;3.10;83.20;;;;;;12656219;28;20027;-77
2024/01/13 22:47:14;;;;;;;54.15;48.45;;;3.10;83.10;;;;;;12655669;28;20038;-77
2024/01/13 22:53:16;;;;;;;68.28;60.75;;;3.10;83.00;;;;;;12637712;28;20059;-76
2024/01/13 22:59:18;;;;;;;48.58;43.88;;;3.10;83.10;;;;;;12644166;22;20055;-76
2024/01/13 23:05:20;;;;;;;69.90;62.58;;;3.10;83.20;;;;;;12620839;28;20440;-77
2024/01/13 23:11:21;;;;;;;68.03;61.00;;;2.90;83.10;;;;;;12655084;28;20435;-77
2024/01/13 23:17:23;;;;;;;54.75;49.05;;;3.00;83.00;;;;;;12654849;28;20028;-77
2024/01/13 23:23:25;;;;;;;47.40;42.55;;;2.90;83.00;;;;;;12636630;28;20032;-77
2024/01/13 23:29:27;;;;;;;57.53;52.08;;;2.90;82.90;;;;;;12654328;28;20032;-77
2024/01/13 23:35:30;;;;;;;50.83;45.47;;;2.90;83.00;;;;;;12636379;28;20340;-77
2024/01/13 23:41:32;;;;;;;50.15;45.05;;;2.90;82.90;;;;;;12636121;28;20039;-77
2024/01/13 23:47:34;;;;;;;53.10;47.80;;;2.90;82.90;;;;;;12619665;28;20044;-77
2024/01/13 23:53:36;;;;;;;51.33;46.53;;;2.70;82.80;;;;;;12653755;28;20035;-76
2024/01/13 23:59:38;;;;;;;52.15;47.55;;;2.50;83.10;;;;;;12642507;28;20161;-76
